Time;durP1;ratioP1;P1;durP2;ratioP2;P2;SDS_P1;SDS_P2;PMS_P1;PMS_P2;Temp;Humidity;BMP_temperature;BMP_pressure;BME280_temperature;BME280_humidity;BME280_pressure;Samples;Min_cycle;Max_cycle;Signal;HPM_P1;HPM_P2
2023/03/05 00:01:18;;;;;;;14.75;3.28;;;;;;;4.59;83.87;102091.59;5020121;28;20034;-75
2023/03/05 00:03:44;;;;;;;15.73;3.78;;;;;;;4.58;83.52;102094.31;5002555;28;20442;-75
2023/03/05 00:06:10;;;;;;;17.10;3.75;;;;;;;4.57;84.28;102092.56;5003130;28;20579;-75
2023/03/05 00:08:36;;;;;;;15.05;3.47;;;;;;;4.56;84.00;102086.38;5016647;28;20037;-75
2023/03/05 00:11:04;;;;;;;16.90;3.95;;;;;;;4.52;84.97;102085.59;5001473;28;20042;-75
2023/03/05 00:13:30;;;;;;;19.50;3.47;;;;;;;4.50;84.68;102092.72;5020585;28;20033;-75
2023/03/05 00:15:56;;;;;;;16.02;3.88;;;;;;;4.48;84.91;102097.25;5020045;28;20033;-75
2023/03/05 00:18:21;;;;;;;16.52;3.95;;;;;;;4.48;85.18;102089.25;5019712;28;20026;-75
2023/03/05 00:20:47;;;;;;;17.70;3.92;;;;;;;4.48;84.94;102091.03;5001517;28;20032;-75
2023/03/05 00:23:13;;;;;;;16.15;3.83;;;;;;;4.48;84.69;102088.34;5019879;28;21073;-74
2023/03/05 00:25:39;;;;;;;15.40;3.90;;;;;;;4.47;85.27;102086.63;5018661;28;20083;-75
2023/03/05 00:28:06;;;;;;;14.20;3.40;;;;;;;4.47;85.54;102083.97;5001701;28;20045;-75
2023/03/05 00:30:33;;;;;;;13.30;3.33;;;;;;;4.45;85.56;102081.34;5001244;28;20033;-75
2023/03/05 00:32:58;;;;;;;16.55;3.90;;;;;;;4.46;85.52;102076.91;5018669;28;20040;-75
2023/03/05 00:35:23;;;;;;;16.48;3.75;;;;;;;4.46;85.92;102077.75;5019282;28;20037;-76
2023/03/05 00:37:49;;;;;;;16.02;3.35;;;;;;;4.49;85.30;102074.16;5018633;28;20033;-75
2023/03/05 00:40:15;;;;;;;13.82;3.35;;;;;;;4.50;85.42;102073.25;5020175;28;20485;-75
2023/03/05 00:42:41;;;;;;;17.65;3.47;;;;;;;4.49;85.75;102072.34;5001206;28;20040;-75
2023/03/05 00:45:08;;;;;;;11.10;3.47;;;;;;;4.46;85.81;102064.44;5019179;28;20033;-75
2023/03/05 00:47:34;;;;;;;15.95;3.38;;;;;;;4.45;86.73;102061.81;5000121;28;20087;-75
2023/03/05 00:49:59;;;;;;;16.20;3.53;;;;;;;4.39;86.79;102060.22;5019108;28;20110;-74
2023/03/05 00:52:25;;;;;;;15.88;3.38;;;;;;;4.37;86.50;102059.38;5017832;28;20496;-75
2023/03/05 00:54:50;;;;;;;13.13;3.35;;;;;;;4.36;86.37;102054.97;5019278;28;20042;-75
2023/03/05 00:57:16;;;;;;;14.55;3.83;;;;;;;4.38;86.50;102053.16;5000712;28;20056;-75
2023/03/05 00:59:41;;;;;;;20.60;4.28;;;;;;;4.38;86.38;102062.00;5019097;28;20064;-75
2023/03/05 01:02:07;;;;;;;13.60;2.83;;;;;;;4.40;86.95;102053.13;5017634;28;20060;-75
2023/03/05 01:04:32;;;;;;;18.70;4.38;;;;;;;4.40;87.22;102053.13;5018085;28;20036;-75
2023/03/05 01:06:57;;;;;;;12.85;3.63;;;;;;;4.36;87.55;102054.97;5001970;28;20415;-75
2023/03/05 01:09:24;;;;;;;12.90;3.97;;;;;;;4.33;87.48;102050.63;5018836;28;20030;-75
2023/03/05 01:11:53;;;;;;;23.15;4.75;;;;;;;4.29;87.85;102048.97;5018195;28;20029;-74
2023/03/05 01:14:19;;;;;;;17.20;3.97;;;;;;;4.29;88.15;102042.75;5018499;28;20659;-74
2023/03/05 01:16:45;;;;;;;13.95;3.60;;;;;;;4.29;88.40;102042.75;5000370;28;20492;-75
2023/03/05 01:19:11;;;;;;;16.05;3.70;;;;;;;4.26;88.22;102042.84;5019180;28;20045;-75
2023/03/05 01:21:36;;;;;;;14.63;4.30;;;;;;;4.29;88.81;102038.31;5019197;28;20033;-75
2023/03/05 01:24:03;;;;;;;15.70;4.50;;;;;;;4.27;88.90;102025.97;5000891;28;20164;-75
2023/03/05 01:26:28;;;;;;;16.02;3.78;;;;;;;4.27;88.85;102028.63;5000974;28;20053;-75
2023/03/05 01:28:54;;;;;;;22.45;3.95;;;;;;;4.30;88.64;102032.06;5000679;28;20104;-74
2023/03/05 01:31:19;;;;;;;21.23;4.47;;;;;;;4.34;88.31;102025.75;5000613;28;20034;-75
2023/03/05 01:33:45;;;;;;;15.00;3.67;;;;;;;4.32;88.21;102016.03;5017790;28;20025;-75
2023/03/05 01:36:14;;;;;;;16.55;3.72;;;;;;;4.33;88.17;102015.13;5018651;28;20037;-76
2023/03/05 01:38:43;;;;;;;15.95;3.92;;;;;;;4.35;88.03;102016.00;4998402;28;20033;-75
2023/03/05 01:41:09;;;;;;;18.10;4.63;;;;;;;4.33;88.80;102012.47;5017762;28;20556;-75
2023/03/05 01:43:35;;;;;;;12.43;3.03;;;;;;;4.32;88.45;102003.63;5000094;28;20342;-75
2023/03/05 01:46:25;;;;;;;18.95;4.35;;;;;;;4.34;88.13;102003.59;5000501;28;20485;-75
2023/03/05 01:49:12;;;;;;;25.52;4.20;;;;;;;4.29;88.85;101998.41;5000116;28;20030;-74
2023/03/05 01:51:44;;;;;;;12.25;3.17;;;;;;;4.24;88.61;101992.31;4999389;28;20493;-74
2023/03/05 01:54:13;;;;;;;16.17;3.17;;;;;;;4.22;89.04;101987.94;5000947;28;20053;-75
2023/03/05 01:56:39;;;;;;;13.95;3.75;;;;;;;4.18;88.72;101982.72;5017644;28;20060;-75
2023/03/05 01:59:05;;;;;;;19.83;3.60;;;;;;;4.18;88.75;101974.75;5017855;28;20465;-75
2023/03/05 02:01:36;;;;;;;11.60;2.58;;;;;;;4.20;88.91;101980.00;4999150;28;20078;-76
2023/03/05 02:04:02;;;;;;;16.45;3.35;;;;;;;4.17;88.81;101970.34;4999663;28;20036;-76
2023/03/05 02:06:27;;;;;;;11.65;2.95;;;;;;;4.17;89.18;101967.69;5017395;28;20037;-76
2023/03/05 02:08:53;;;;;;;16.77;3.47;;;;;;;4.16;89.63;101967.75;4999467;28;20025;-76
2023/03/05 02:11:19;;;;;;;13.75;2.72;;;;;;;4.14;89.58;101962.47;4999131;28;20494;-76
2023/03/05 02:13:44;;;;;;;11.70;3.05;;;;;;;4.14;89.98;101953.59;5017450;28;20037;-76
2023/03/05 02:16:10;;;;;;;13.02;3.25;;;;;;;4.11;90.24;101954.53;4998977;28;20351;-76
2023/03/05 02:18:35;;;;;;;14.48;3.28;;;;;;;4.07;90.45;101957.34;4999681;28;20571;-76
2023/03/05 02:21:05;;;;;;;10.88;3.03;;;;;;;4.06;90.74;101948.50;5017477;28;20095;-75
2023/03/05 02:23:35;;;;;;;15.13;3.40;;;;;;;4.02;90.93;101949.50;4999534;28;20466;-75
2023/03/05 02:26:02;;;;;;;15.73;3.10;;;;;;;3.99;91.10;101949.56;5016578;28;20025;-75
2023/03/05 02:28:30;;;;;;;10.32;2.78;;;;;;;3.94;91.25;101944.41;5017391;28;20569;-75
2023/03/05 02:30:55;;;;;;;15.52;2.95;;;;;;;3.92;91.20;101937.38;4999324;28;20485;-76
2023/03/05 02:33:21;;;;;;;10.40;3.00;;;;;;;3.92;91.32;101942.69;5016975;28;20079;-76
2023/03/05 02:35:47;;;;;;;14.27;3.47;;;;;;;3.90;91.63;101937.41;4999424;28;20083;-75
2023/03/05 02:38:14;;;;;;;19.17;3.88;;;;;;;3.88;91.89;101935.69;5017689;28;21357;-75
2023/03/05 02:40:40;;;;;;;13.95;2.80;;;;;;;3.88;91.95;101935.69;5016618;28;20026;-76
2023/03/05 02:43:05;;;;;;;9.38;2.75;;;;;;;3.84;91.85;101924.28;5016876;28;20531;-76
2023/03/05 02:45:31;;;;;;;12.90;3.28;;;;;;;3.82;92.04;101932.31;5019823;28;20037;-75
2023/03/05 02:47:56;;;;;;;14.70;3.53;;;;;;;3.80;92.41;101926.16;5020828;28;20031;-76
2023/03/05 02:50:23;;;;;;;12.55;3.50;;;;;;;3.81;92.51;101921.72;5020144;28;20040;-76
2023/03/05 02:52:48;;;;;;;12.00;3.20;;;;;;;3.82;92.37;101916.34;5002103;28;20297;-76
2023/03/05 02:55:13;;;;;;;15.80;4.13;;;;;;;3.82;92.36;101908.38;5021171;28;20037;-76
2023/03/05 02:57:39;;;;;;;12.68;3.55;;;;;;;3.82;92.55;101910.16;5002454;28;20120;-75
2023/03/05 03:00:05;;;;;;;13.20;3.00;;;;;;;3.81;92.58;101905.75;5020632;28;20040;-76
2023/03/05 03:02:30;;;;;;;12.68;3.78;;;;;;;3.78;92.82;101909.38;5019970;28;20425;-76
2023/03/05 03:04:56;;;;;;;11.98;3.25;;;;;;;3.74;93.13;101910.38;5021309;28;20025;-76
2023/03/05 03:07:21;;;;;;;13.02;3.17;;;;;;;3.75;93.42;101893.50;5020474;28;20430;-76
2023/03/05 03:09:47;;;;;;;15.80;3.47;;;;;;;3.80;93.12;101901.34;5020224;28;20112;-76
2023/03/05 03:12:13;;;;;;;13.43;3.45;;;;;;;3.77;93.37;101896.13;5001337;28;20471;-76
2023/03/05 03:14:41;;;;;;;18.90;3.95;;;;;;;3.78;93.36;101890.75;5020693;28;20095;-76
2023/03/05 03:17:17;;;;;;;20.42;4.88;;;;;;;3.79;92.92;101894.28;5020061;28;20044;-76
2023/03/05 03:19:42;;;;;;;11.27;2.75;;;;;;;3.76;93.31;101887.25;5019969;28;20404;-76
2023/03/05 03:22:10;;;;;;;16.20;3.58;;;;;;;3.75;93.22;101888.19;5002027;28;20033;-76
2023/03/05 03:24:37;;;;;;;14.45;4.32;;;;;;;3.73;93.46;101887.34;5019555;28;20519;-76
2023/03/05 03:27:03;;;;;;;13.95;3.33;;;;;;;3.71;93.12;101877.69;5002535;28;20409;-76
2023/03/05 03:29:29;;;;;;;15.60;3.45;;;;;;;3.69;93.05;101877.75;5001132;28;20152;-76
2023/03/05 03:31:55;;;;;;;15.45;4.22;;;;;;;3.64;93.16;101879.63;5019228;28;20090;-76
2023/03/05 03:34:20;;;;;;;11.02;3.55;;;;;;;3.63;93.38;101865.47;5019230;28;20033;-76
2023/03/05 03:36:48;;;;;;;15.18;4.15;;;;;;;3.61;93.53;101859.31;5020141;28;20128;-76
2023/03/05 03:39:14;;;;;;;17.45;4.70;;;;;;;3.64;93.61;101858.38;5020490;28;20400;-75
2023/03/05 03:41:44;;;;;;;13.02;3.42;;;;;;;3.63;93.34;101853.97;5019097;28;20467;-76
2023/03/05 03:44:10;;;;;;;;;;;;;;;3.71;92.19;101853.75;5019970;28;20037;-75
2023/03/05 03:46:37;;;;;;;17.20;4.28;;;;;;;3.60;93.06;101846.97;5019706;28;20233;-76
2023/03/05 03:49:03;;;;;;;15.07;3.97;;;;;;;3.60;93.14;101846.97;5019588;28;20044;-76
2023/03/05 03:51:28;;;;;;;15.57;4.25;;;;;;;3.57;93.20;101849.69;5019154;28;20030;-76
2023/03/05 03:53:54;;;;;;;17.15;4.63;;;;;;;3.59;93.71;101847.00;5019522;28;20041;-76
2023/03/05 03:56:19;;;;;;;17.38;4.72;;;;;;;3.56;93.59;101845.31;4999763;28;20160;-75
2023/03/05 03:58:45;;;;;;;13.70;3.80;;;;;;;3.58;93.35;101846.13;5019312;28;20059;-76
2023/03/05 04:01:10;;;;;;;19.85;4.88;;;;;;;3.58;93.05;101842.59;5018634;28;20029;-75
2023/03/05 04:03:35;;;;;;;19.00;4.65;;;;;;;3.55;93.11;101845.34;5018521;28;20030;-75
2023/03/05 04:06:01;;;;;;;16.70;5.25;;;;;;;3.54;92.94;101841.78;5019383;28;20033;-76
2023/03/05 04:08:26;;;;;;;13.90;4.63;;;;;;;3.53;93.64;101839.19;5018984;28;20078;-76
2023/03/05 04:10:52;;;;;;;17.98;4.90;;;;;;;3.52;93.21;101837.47;5000716;28;20119;-75
2023/03/05 04:13:17;;;;;;;13.82;4.30;;;;;;;3.49;93.01;101835.75;5001222;28;20400;-75
2023/03/05 04:15:43;;;;;;;22.25;5.68;;;;;;;3.50;92.93;101835.72;4999577;28;20719;-75
2023/03/05 04:18:09;;;;;;;21.52;4.80;;;;;;;3.50;93.03;101825.06;5018136;28;20037;-75
2023/03/05 04:20:34;;;;;;;18.30;5.28;;;;;;;3.51;93.49;101823.28;5019372;28;20041;-75
2023/03/05 04:22:59;;;;;;;19.23;5.38;;;;;;;3.48;93.67;101826.91;5000894;28;20030;-76
2023/03/05 04:25:25;;;;;;;19.58;5.28;;;;;;;3.48;93.60;101812.75;5017726;28;20370;-76
2023/03/05 04:27:50;;;;;;;19.77;5.22;;;;;;;3.47;93.52;101813.63;5017870;28;20419;-76
2023/03/05 04:30:16;;;;;;;20.50;5.13;;;;;;;3.50;93.67;101816.25;5019290;28;20335;-76
2023/03/05 04:32:41;;;;;;;25.85;6.20;;;;;;;3.49;93.60;101817.16;5000182;28;20033;-76
2023/03/05 04:35:07;;;;;;;18.52;5.32;;;;;;;3.48;93.61;101810.97;5018226;28;20346;-75
2023/03/05 04:37:32;;;;;;;18.30;4.63;;;;;;;3.48;93.74;101805.66;4999758;28;20223;-76
2023/03/05 04:39:58;;;;;;;19.58;5.70;;;;;;;3.46;93.79;101799.50;5000669;28;20060;-75
2023/03/05 04:42:23;;;;;;;18.02;6.03;;;;;;;3.46;93.87;101796.84;5016168;28;20112;-76
2023/03/05 04:44:49;;;;;;;16.95;5.07;;;;;;;3.46;94.35;101804.81;4998842;28;20649;-75
2023/03/05 04:47:16;;;;;;;21.15;5.57;;;;;;;3.47;93.85;101798.59;5017341;28;20021;-76
2023/03/05 04:49:41;;;;;;;21.90;6.22;;;;;;;3.49;93.99;101798.53;5000346;28;20048;-76
2023/03/05 04:52:07;;;;;;;19.35;5.65;;;;;;;3.49;94.35;101788.78;4999704;28;20033;-76
2023/03/05 04:54:32;;;;;;;22.27;5.72;;;;;;;3.48;94.16;101789.72;5018796;28;20420;-76
2023/03/05 04:56:58;;;;;;;17.45;5.82;;;;;;;3.46;94.12;101791.53;5018889;28;20065;-76
2023/03/05 04:59:23;;;;;;;18.38;5.53;;;;;;;3.48;94.03;101788.81;5000618;28;20064;-76
2023/03/05 05:01:49;;;;;;;20.40;6.35;;;;;;;3.49;94.09;101786.13;5017847;28;20033;-76
2023/03/05 05:04:14;;;;;;;22.45;6.65;;;;;;;3.51;94.37;101788.72;5019071;28;20037;-76
2023/03/05 05:06:39;;;;;;;17.65;5.80;;;;;;;3.49;93.93;101780.81;5000434;28;20065;-76
2023/03/05 05:09:04;;;;;;;18.10;6.40;;;;;;;3.49;94.46;101779.94;5000835;28;20052;-76
2023/03/05 05:11:30;;;;;;;19.65;5.85;;;;;;;3.48;93.77;101773.75;5018123;28;20037;-76
2023/03/05 05:13:55;;;;;;;25.27;7.60;;;;;;;3.49;94.31;101766.66;5000535;28;20041;-76
2023/03/05 05:16:20;;;;;;;21.13;6.90;;;;;;;3.46;93.96;101775.56;5019023;28;20293;-76
2023/03/05 05:18:46;;;;;;;19.98;6.78;;;;;;;3.46;94.45;101775.56;5018186;28;20029;-76
2023/03/05 05:21:13;;;;;;;21.65;6.80;;;;;;;3.49;94.21;101775.47;4999910;28;20055;-76
2023/03/05 05:23:38;;;;;;;20.35;6.88;;;;;;;3.50;94.17;101765.75;5001040;28;20075;-75
2023/03/05 05:26:06;;;;;;;19.83;6.85;;;;;;;3.53;94.40;101764.75;5000500;28;20039;-76
2023/03/05 05:28:32;;;;;;;19.90;7.05;;;;;;;3.50;94.48;101765.75;5018219;28;20216;-76
2023/03/05 05:30:57;;;;;;;24.50;7.93;;;;;;;3.50;94.63;101758.63;5017081;28;20120;-75
2023/03/05 05:33:26;;;;;;;23.80;6.40;;;;;;;3.52;95.09;101757.72;5017819;28;20428;-76
2023/03/05 05:35:51;;;;;;;20.92;7.45;;;;;;;3.51;94.92;101762.16;5017777;28;20087;-76
2023/03/05 05:38:17;;;;;;;22.08;7.05;;;;;;;3.50;95.59;101761.28;5018001;28;20464;-76
2023/03/05 05:40:42;;;;;;;17.83;6.55;;;;;;;3.47;95.26;101758.72;5000289;28;20119;-76
2023/03/05 05:43:08;;;;;;;21.38;7.00;;;;;;;3.46;96.11;101766.75;5000551;28;20041;-76
2023/03/05 05:45:33;;;;;;;20.33;7.43;;;;;;;3.47;96.38;101757.84;5018662;28;20107;-76
2023/03/05 05:47:58;;;;;;;18.75;6.28;;;;;;;3.46;96.43;101759.63;5018326;28;20033;-75
2023/03/05 05:50:24;;;;;;;19.10;6.85;;;;;;;3.49;97.04;101761.34;5018178;28;20029;-76
2023/03/05 05:52:50;;;;;;;21.98;7.53;;;;;;;3.52;97.18;101758.59;5016736;28;20045;-76
2023/03/05 05:55:16;;;;;;;23.83;7.10;;;;;;;3.53;97.67;101754.13;4999733;28;20045;-76
2023/03/05 05:57:42;;;;;;;21.20;7.15;;;;;;;3.53;97.38;101743.50;5017110;28;20041;-76
2023/03/05 06:00:11;;;;;;;19.90;7.00;;;;;;;3.54;98.01;101746.09;5000193;28;20030;-76
2023/03/05 06:02:38;;;;;;;24.27;6.83;;;;;;;3.55;98.21;101741.69;5017112;28;21054;-76
2023/03/05 06:05:04;;;;;;;18.25;6.75;;;;;;;3.52;98.02;101734.66;5016835;28;20160;-76
2023/03/05 06:07:30;;;;;;;20.60;6.70;;;;;;;3.53;98.08;101733.75;5016989;28;20384;-76
2023/03/05 06:09:55;;;;;;;18.25;6.13;;;;;;;3.53;98.54;101738.19;4999641;28;20037;-75
2023/03/05 06:12:21;;;;;;;22.35;6.53;;;;;;;3.52;98.23;101720.50;5000228;28;20034;-75
2023/03/05 06:14:46;;;;;;;17.67;6.45;;;;;;;3.48;98.69;101725.94;4998523;28;20026;-76
2023/03/05 06:17:11;;;;;;;22.48;6.60;;;;;;;3.50;98.04;101720.56;4999878;28;20033;-76
2023/03/05 06:19:37;;;;;;;22.13;7.13;;;;;;;3.45;98.45;101726.00;4997486;28;20033;-75
2023/03/05 06:22:02;;;;;;;19.30;6.88;;;;;;;3.45;98.93;101728.66;5004408;28;20128;-75
2023/03/05 06:24:27;;;;;;;19.92;6.47;;;;;;;3.43;99.04;101725.19;5004533;28;20583;-76
2023/03/05 06:26:53;;;;;;;22.00;6.40;;;;;;;3.43;99.38;101717.19;5021089;28;20041;-76
2023/03/05 06:29:18;;;;;;;20.25;7.40;;;;;;;3.45;99.29;101725.13;5021576;28;20447;-76
2023/03/05 06:31:43;;;;;;;19.80;7.00;;;;;;;3.46;99.32;101732.19;5020442;28;20045;-75
2023/03/05 06:34:09;;;;;;;19.80;6.00;;;;;;;3.49;99.72;101727.66;5019047;28;20056;-75
2023/03/05 06:36:34;;;;;;;18.50;6.22;;;;;;;3.50;99.49;101728.53;5021120;28;20179;-75
2023/03/05 06:38:59;;;;;;;19.98;7.00;;;;;;;3.50;99.34;101724.09;5019109;28;20148;-76
2023/03/05 06:41:27;;;;;;;19.73;6.35;;;;;;;3.53;99.87;101725.78;5021031;28;20143;-75
2023/03/05 06:43:53;;;;;;;19.35;6.65;;;;;;;3.53;99.38;101727.56;5021971;28;20045;-75
2023/03/05 06:46:28;;;;;;;21.35;6.97;;;;;;;3.53;99.54;101719.56;5003773;28;20045;-76
2023/03/05 06:48:56;;;;;;;18.90;6.18;;;;;;;3.52;99.60;101725.84;5020536;28;20157;-76
2023/03/05 06:51:32;;;;;;;19.67;5.78;;;;;;;3.56;99.89;101727.47;5020546;28;20037;-76
2023/03/05 06:54:00;;;;;;;16.42;5.35;;;;;;;3.55;99.07;101718.63;5019867;28;20675;-75
2023/03/05 06:56:26;;;;;;;22.30;5.38;;;;;;;3.56;99.36;101724.81;5021408;28;20037;-76
2023/03/05 06:58:51;;;;;;;17.45;5.38;;;;;;;3.56;99.00;101722.13;5003271;28;20115;-75
2023/03/05 07:01:18;;;;;;;15.85;4.82;;;;;;;3.56;99.09;101732.78;5019966;28;20108;-75
2023/03/05 07:03:47;;;;;;;21.80;5.80;;;;;;;3.56;99.15;101725.69;5000636;28;20024;-76
2023/03/05 07:06:13;;;;;;;18.88;5.53;;;;;;;3.58;99.14;101730.97;5001595;28;20052;-75
2023/03/05 07:08:38;;;;;;;16.38;5.28;;;;;;;3.60;99.87;101729.13;5002751;28;20040;-75
2023/03/05 07:11:13;;;;;;;16.13;4.95;;;;;;;3.61;99.07;101725.53;5000867;28;20029;-76
2023/03/05 07:13:38;;;;;;;16.35;5.80;;;;;;;3.63;99.43;101724.59;5001557;28;20040;-76
2023/03/05 07:16:06;;;;;;;15.32;5.18;;;;;;;3.65;100.00;101719.22;5020263;28;20029;-76
2023/03/05 07:18:31;;;;;;;21.38;5.55;;;;;;;3.67;99.76;101722.69;5019526;28;20114;-76
2023/03/05 07:21:03;;;;;;;17.38;5.15;;;;;;;3.74;100.00;101715.41;5017603;28;20152;-76
2023/03/05 07:23:28;;;;;;;18.45;4.90;;;;;;;3.77;99.72;101710.00;5020082;28;20068;-75
2023/03/05 07:25:53;;;;;;;16.73;5.45;;;;;;;3.81;99.62;101709.00;5007453;28;20064;-76
2023/03/05 07:28:19;;;;;;;13.70;4.55;;;;;;;3.84;99.56;101707.09;5019986;28;20151;-75
2023/03/05 07:30:44;;;;;;;14.77;4.40;;;;;;;3.83;99.59;101708.00;5018651;28;20536;-75
2023/03/05 07:33:09;;;;;;;11.70;4.28;;;;;;;3.83;98.57;101705.34;5002199;28;20038;-75
2023/03/05 07:35:39;;;;;;;18.08;4.85;;;;;;;3.87;99.57;101714.13;5019354;28;20401;-76
2023/03/05 07:38:04;;;;;;;11.43;3.47;;;;;;;3.88;99.46;101712.31;5001303;28;20041;-75
2023/03/05 07:40:29;;;;;;;14.95;3.90;;;;;;;3.90;99.14;101705.19;5021274;28;20047;-75
2023/03/05 07:42:55;;;;;;;14.38;3.83;;;;;;;3.90;98.80;101707.84;5002321;28;20477;-75
2023/03/05 07:45:20;;;;;;;15.30;3.88;;;;;;;3.91;99.41;101709.56;5019158;28;20041;-75
2023/03/05 07:47:45;;;;;;;14.82;3.78;;;;;;;3.92;99.62;101709.50;5020693;28;20162;-75
2023/03/05 07:50:11;;;;;;;16.70;3.85;;;;;;;3.95;99.66;101713.88;5003189;28;20057;-75
2023/03/05 07:52:36;;;;;;;12.07;3.72;;;;;;;3.94;99.57;101710.34;5017597;28;20050;-75
2023/03/05 07:55:01;;;;;;;12.73;3.40;;;;;;;3.97;98.86;101712.91;5019550;28;20026;-76
2023/03/05 07:57:27;;;;;;;14.82;3.50;;;;;;;3.98;98.46;101697.81;5002577;28;20041;-75
2023/03/05 07:59:52;;;;;;;12.13;3.08;;;;;;;4.01;98.14;101708.34;5020897;28;20435;-75
2023/03/05 08:02:18;;;;;;;10.52;3.28;;;;;;;4.03;98.69;101702.06;5018195;28;20037;-75
2023/03/05 08:04:44;;;;;;;11.13;3.63;;;;;;;4.05;98.90;101701.16;5019338;28;20033;-75
2023/03/05 08:07:09;;;;;;;10.90;3.15;;;;;;;4.09;98.18;101706.31;5020341;28;20100;-75
2023/03/05 08:09:34;;;;;;;13.45;3.35;;;;;;;4.08;97.47;101693.06;5020560;28;20621;-76
2023/03/05 08:12:00;;;;;;;14.65;3.35;;;;;;;4.09;97.74;101695.69;5002603;28;20040;-76
2023/03/05 08:14:25;;;;;;;12.75;3.42;;;;;;;4.10;97.38;101691.22;5019616;28;20509;-76
2023/03/05 08:16:51;;;;;;;14.40;3.78;;;;;;;4.09;96.87;101695.69;5018008;28;20037;-75
2023/03/05 08:19:18;;;;;;;11.43;3.70;;;;;;;4.10;97.47;101692.09;5020268;28;20456;-75
2023/03/05 08:21:44;;;;;;;9.63;2.80;;;;;;;4.10;96.93;101688.56;5001993;28;20448;-75
2023/03/05 08:24:10;;;;;;;15.82;3.40;;;;;;;4.08;96.88;101682.44;5018668;28;20037;-75
2023/03/05 08:26:37;;;;;;;9.63;3.42;;;;;;;4.10;97.46;101688.56;5002085;28;20144;-75
2023/03/05 08:29:03;;;;;;;13.02;4.00;;;;;;;4.12;97.56;101690.25;5000844;28;20083;-76
2023/03/05 08:31:29;;;;;;;9.20;3.05;;;;;;;4.13;97.21;101680.47;4999818;28;20144;-75
2023/03/05 08:33:55;;;;;;;10.85;2.92;;;;;;;4.16;97.90;101678.59;4997258;28;20238;-75
2023/03/05 08:36:21;;;;;;;13.50;4.18;;;;;;;4.20;97.32;101677.56;4996363;28;20037;-75
2023/03/05 08:38:47;;;;;;;12.43;3.30;;;;;;;4.25;97.65;101676.56;5009694;28;20136;-76
2023/03/05 08:41:13;;;;;;;14.85;3.47;;;;;;;4.27;97.32;101672.91;5000781;28;20044;-76
2023/03/05 08:43:38;;;;;;;12.45;3.55;;;;;;;4.33;97.04;101672.72;5000320;28;20037;-75
2023/03/05 08:46:04;;;;;;;11.70;2.97;;;;;;;4.36;96.21;101667.28;5001661;28;20075;-76
2023/03/05 08:48:30;;;;;;;10.80;2.95;;;;;;;4.41;96.08;101668.91;5019168;28;20544;-75
2023/03/05 08:50:56;;;;;;;10.38;2.70;;;;;;;4.44;96.59;101661.69;5019127;28;20041;-75
2023/03/05 08:53:22;;;;;;;14.07;3.00;;;;;;;4.47;95.25;101664.25;5019760;28;20507;-75
2023/03/05 08:55:57;;;;;;;9.88;2.70;;;;;;;4.49;94.57;101658.88;5019302;28;20404;-76
2023/03/05 08:58:23;;;;;;;7.45;2.13;;;;;;;4.49;94.13;101654.41;5001736;28;20037;-76
2023/03/05 09:00:52;;;;;;;11.43;3.25;;;;;;;4.50;94.47;101647.31;5001469;28;20132;-76
2023/03/05 09:03:18;;;;;;;13.93;3.45;;;;;;;4.57;94.82;101650.59;5019724;28;20025;-76
2023/03/05 09:05:43;;;;;;;8.25;2.78;;;;;;;4.61;94.73;101652.22;5001308;28;20393;-76
2023/03/05 09:08:09;;;;;;;14.88;2.85;;;;;;;4.64;93.48;101653.00;5019628;28;21004;-75
2023/03/05 09:10:34;;;;;;;8.07;2.60;;;;;;;4.66;91.88;101652.97;5002044;28;20107;-76
2023/03/05 09:12:59;;;;;;;6.97;2.00;;;;;;;4.64;91.44;101647.69;5019052;28;20087;-76
2023/03/05 09:15:25;;;;;;;11.27;2.72;;;;;;;4.66;91.27;101647.63;5001150;28;20107;-75
2023/03/05 09:17:50;;;;;;;8.18;2.30;;;;;;;4.65;91.39;101640.56;5018945;28;20044;-75
2023/03/05 09:20:15;;;;;;;12.48;2.50;;;;;;;4.62;91.55;101646.84;5001515;28;20036;-75
2023/03/05 09:22:41;;;;;;;8.90;2.88;;;;;;;4.64;92.72;101633.47;5018862;28;20543;-76
2023/03/05 09:25:07;;;;;;;10.15;2.60;;;;;;;4.68;92.97;101637.78;5019239;28;20112;-75
2023/03/05 09:27:34;;;;;;;11.35;3.53;;;;;;;4.71;94.03;101624.34;5019108;28;20117;-76
2023/03/05 09:29:59;;;;;;;11.43;3.47;;;;;;;4.77;93.48;101625.94;5000902;28;20557;-76
2023/03/05 09:32:24;;;;;;;11.57;3.78;;;;;;;4.80;92.72;101625.81;5001202;28;20116;-76
2023/03/05 09:34:50;;;;;;;10.23;3.60;;;;;;;4.87;92.79;101622.00;5001439;28;20492;-76
2023/03/05 09:37:15;;;;;;;12.48;3.30;;;;;;;4.90;92.09;101625.44;5019274;28;20466;-76
2023/03/05 09:39:40;;;;;;;13.48;3.60;;;;;;;4.93;90.66;101624.44;5018973;28;20418;-76
2023/03/05 09:42:49;;;;;;;10.30;3.45;;;;;;;4.98;91.94;101625.16;5018522;28;20040;-76
2023/03/05 09:45:36;;;;;;;12.70;3.60;;;;;;;5.06;91.26;101616.84;5018785;28;20034;-76
2023/03/05 09:48:37;;;;;;;13.63;3.92;;;;;;;5.10;89.62;101614.97;5018663;28;20605;-76
2023/03/05 09:51:03;;;;;;;12.75;3.78;;;;;;;5.17;90.37;101613.75;5018773;28;20026;-76
2023/03/05 09:53:52;;;;;;;14.45;4.30;;;;;;;5.19;90.16;101611.94;5000564;28;20061;-76
2023/03/05 09:56:22;;;;;;;9.55;3.35;;;;;;;5.19;89.59;101610.13;4997701;28;20438;-76
2023/03/05 09:59:17;;;;;;;10.80;3.60;;;;;;;5.24;88.89;101610.84;5000812;28;20489;-76
2023/03/05 10:01:43;;;;;;;12.68;3.63;;;;;;;5.22;87.53;101604.66;5007436;28;20045;-76
2023/03/05 10:04:14;;;;;;;10.52;3.20;;;;;;;5.25;87.80;101612.53;5018833;28;20033;-77
2023/03/05 10:07:06;;;;;;;12.70;3.28;;;;;;;5.28;87.78;101606.25;5018006;28;20033;-76
2023/03/05 10:09:46;;;;;;;10.52;3.22;;;;;;;5.29;85.49;101599.13;5018703;28;20473;-76
2023/03/05 10:12:16;;;;;;;9.30;3.35;;;;;;;5.33;85.65;101606.06;5018839;28;20044;-76
2023/03/05 10:14:41;;;;;;;;;;;;;;;5.37;86.96;101605.00;5019421;28;20033;-76
2023/03/05 10:17:34;;;;;;;11.68;3.15;;;;;;;5.35;86.65;101601.53;5000488;28;19982;-76
2023/03/05 10:20:20;;;;;;;14.45;4.10;;;;;;;5.36;86.29;101595.25;5018380;28;20037;-75
2023/03/05 10:23:13;;;;;;;11.10;3.42;;;;;;;5.43;86.29;101591.44;5000797;28;21330;-76
2023/03/05 10:25:56;;;;;;;12.65;4.32;;;;;;;5.44;84.61;101585.19;5018776;28;20036;-76
2023/03/05 10:29:02;;;;;;;12.25;3.90;;;;;;;5.43;85.11;101580.75;5018672;28;20083;-76
2023/03/05 10:31:52;;;;;;;12.38;3.42;;;;;;;5.38;84.48;101580.94;5018556;28;20033;-76
2023/03/05 10:34:22;;;;;;;10.60;3.00;;;;;;;5.34;83.76;101576.66;5018462;28;20507;-76
2023/03/05 10:37:06;;;;;;;;;;;;;;;5.37;85.40;101573.91;5001144;28;21093;-76
2023/03/05 10:39:48;;;;;;;10.13;3.65;;;;;;;5.28;84.82;101576.06;5000580;28;20011;-76
2023/03/05 10:42:23;;;;;;;11.15;3.22;;;;;;;5.18;87.36;101587.09;5018437;28;20037;-75
2023/03/05 10:44:53;;;;;;;7.40;2.22;;;;;;;5.02;91.19;101583.25;5000332;28;20132;-75
2023/03/05 10:47:27;;;;;;;9.18;2.70;;;;;;;4.89;93.34;101586.41;5017949;28;20116;-75
2023/03/05 10:49:54;;;;;;;6.53;2.00;;;;;;;4.79;93.83;101584.13;5018017;28;20536;-75
2023/03/05 10:52:33;;;;;;;5.30;1.67;;;;;;;4.68;94.26;101585.38;5017910;28;20051;-75
2023/03/05 10:54:59;;;;;;;2.63;1.40;;;;;;;4.63;95.91;101567.88;5000497;28;20038;-75
2023/03/05 10:57:27;;;;;;;3.58;1.30;;;;;;;4.65;98.12;101574.84;5018237;28;21082;-75
2023/03/05 10:59:59;;;;;;;5.32;1.77;;;;;;;4.71;97.24;101565.78;4999841;28;20025;-75
2023/03/05 11:02:25;;;;;;;4.75;1.30;;;;;;;4.79;98.05;101561.03;5017679;28;20025;-76
2023/03/05 11:04:51;;;;;;;4.28;1.23;;;;;;;4.86;97.08;101551.00;5000370;28;20033;-75
2023/03/05 11:07:17;;;;;;;3.72;1.33;;;;;;;4.95;97.84;101549.78;5021332;28;20590;-76
2023/03/05 11:10:02;;;;;;;2.75;1.17;;;;;;;4.99;96.87;101543.41;5003722;28;20029;-75
2023/03/05 11:12:30;;;;;;;6.05;1.67;;;;;;;5.04;96.47;101546.78;5003896;28;20328;-75
2023/03/05 11:15:07;;;;;;;5.57;1.67;;;;;;;5.11;95.75;101540.28;5003781;28;20045;-75
2023/03/05 11:17:37;;;;;;;5.72;1.95;;;;;;;5.17;93.75;101536.50;5003450;28;20037;-76
2023/03/05 11:20:27;;;;;;;4.15;1.67;;;;;;;5.22;94.13;101534.53;5021447;28;20105;-76
2023/03/05 11:23:10;;;;;;;9.00;2.20;;;;;;;5.22;93.68;101531.88;5021553;28;20378;-75
2023/03/05 11:25:49;;;;;;;4.53;2.00;;;;;;;5.24;93.50;101528.22;5021469;28;20039;-76
2023/03/05 11:28:21;;;;;;;8.63;2.65;;;;;;;5.34;95.74;101527.84;5021296;28;20100;-76
2023/03/05 11:31:18;;;;;;;9.13;2.72;;;;;;;5.40;93.28;101523.13;5020803;28;20022;-75